Grahamsville, New York
Current Conditions -  °F | °C
As of 1:15 AM on Tuesday 21 Oct 2014 (Local Time) from KMSV Reporting Station
Overcast Overcast  
Wind Chill: 42°   Ceiling: 9500
Heat Index: 45°   Visibility: 10mi
Dew Point: 39°   Wind: 5mph
Humidity: 81%   Direction: 120°ESE
Pressure: 29.93"   Gusts: NA
Location:  41.85°N, 74.55°W
Report Text: KMSV 210515Z AUTO 12004KT 10SM FEW055 SCT065 OVC095 07/04 A2993 RMK AO1
Loading
Personal Weather Stations






























Interactive Weather Map
Tropical Storm Tracking
New forecast layout! Learn more

10-Day Weather Forecast

Advertisements
Track Severe Weather on mobile